Garfield, NJ (07026)

9:36 AM EST on January 26, 2015 (GMT -0500)
Outwater Lane, Lodi, NJ | Change Station
CLOSE
Current Station
Personal Weather Station
Location: Lodi, NJ
Elevation: 56 ft
Nearby Weather Stations
Active Advisory: Blizzard Warning

Elev 56 ft 40.89 °N, 74.09 °W | Updated 4 seconds ago

Light Snow
Light Snow Mist
22.1 °F
Feels Like 22 °F
N
2.0
Wind Variable Wind from NE
Gusts 9.0 mph

Today
High -- | Low -- °F
--% Chance of Precip.
Yesterday
High -- | Low -- °F
Precip. -- in
7:12 AM 5:06 PM
Waxing Crescent, 43% visible
Pressure 30.02 in
Visibility 2.5 miles
Clouds Mostly Cloudy 2700 ft
Mostly Cloudy 3800 ft
Overcast 6500 ft
Windchill 22 °F
Dew Point 16 °F
Humidity 78%
Rainfall 0.00 in
Snow Depth Not available.
UV 0.0 out of 12
Pollen .10 out of 12
Air Quality Not available.
Flu Activity Not available.
SPECI KTEB 261430Z 05007KT 2 1/2SM -SN BR BKN027 BKN038 OVC065 M06/M10 A3002 RMK AO2 P0000 $

More Conditions Fewer Conditions

Pressure 30.02 in
Visibility 2.5 miles
Clouds Mostly Cloudy 2700 ft
Mostly Cloudy 3800 ft
Overcast 6500 ft
Windchill 22 °F
Dew Point 16 °F
Humidity 78%
Rainfall 0.00 in
Snow Depth Not available.
UV 0.0 out of 12
Pollen .10 out of 12
Air Quality Not available.
Flu Activity Not available.
SPECI KTEB 261430Z 05007KT 2 1/2SM -SN BR BKN027 BKN038 OVC065 M06/M10 A3002 RMK AO2 P0000 $

More Conditions Fewer Conditions

10-Day Weather Forecast

Almanac

Astronomy

Jan. 26, 2015 Rise Set
Actual Time
Civil Twilight
Nautical Twilight
Astronomical Twilight
Moon
Length of Visible Light
Length of Day
Tomorrow will be .
, % of the Moon is Illuminated

Today's Extremes

State Highs State Lows

Community

WunderPhotos

Upload Photos

1,790,226 photos uploaded!

WunderBlogs® & News

Nearby

Air Quality

  Air Quality AQ Index Pollutant
Not available.

Snow Depth

Station Depth Elevation

Earthquake Activity

City Distance Mag. Time & Date
Minimum magnitude displayed is 2.5.

Coastal Water Temperatures

Place Temperature

Nearby Weather Stations